createdAt,value
2019-02-21T00:00:43.143Z,0.00
2019-02-21T00:01:43.138Z,0.00
2019-02-21T00:02:43.135Z,0.00
2019-02-21T00:03:43.118Z,0.00
2019-02-21T00:04:43.108Z,0.00
2019-02-21T00:05:43.084Z,0.00
2019-02-21T00:06:43.081Z,0.00
2019-02-21T00:07:43.072Z,0.00
2019-02-21T00:08:43.094Z,0.00
2019-02-21T00:09:43.048Z,0.00
2019-02-21T00:10:43.041Z,0.00
2019-02-21T00:11:43.028Z,0.00
2019-02-21T00:12:43.010Z,0.00
2019-02-21T00:13:43.002Z,0.00
2019-02-21T00:14:43.030Z,0.00
2019-02-21T00:15:43.015Z,0.00
2019-02-21T00:16:42.967Z,0.00
2019-02-21T00:17:42.964Z,0.00
2019-02-21T00:18:42.967Z,0.00
2019-02-21T00:19:42.942Z,0.00
2019-02-21T00:20:42.932Z,0.00
2019-02-21T00:21:42.956Z,0.00
2019-02-21T00:22:42.905Z,0.00
2019-02-21T00:23:42.892Z,0.00
2019-02-21T00:24:43.019Z,0.00
2019-02-21T00:25:42.877Z,0.00
2019-02-21T00:26:44.285Z,0.00
2019-02-21T00:27:42.881Z,0.00
2019-02-21T00:28:42.848Z,0.00
2019-02-21T00:29:42.846Z,0.00
2019-02-21T00:30:42.833Z,0.00
2019-02-21T00:31:42.807Z,0.00
2019-02-21T00:32:42.829Z,0.00
2019-02-21T00:33:42.884Z,0.00
2019-02-21T00:34:42.805Z,0.00
2019-02-21T00:35:42.764Z,0.00
2019-02-21T00:36:42.755Z,0.00
2019-02-21T00:37:42.749Z,0.00
2019-02-21T00:38:42.740Z,0.00
2019-02-21T00:39:42.777Z,0.00
2019-02-21T00:40:42.721Z,0.00
2019-02-21T00:41:42.708Z,0.00
2019-02-21T00:42:42.694Z,0.00
2019-02-21T00:43:42.683Z,0.00
2019-02-21T00:44:42.679Z,0.00
2019-02-21T00:45:42.709Z,0.00
2019-02-21T00:46:42.658Z,0.00
2019-02-21T00:47:42.646Z,0.00
2019-02-21T00:48:42.637Z,0.00
2019-02-21T00:49:42.619Z,0.00
2019-02-21T00:50:42.632Z,0.00
2019-02-21T00:51:42.676Z,0.00
2019-02-21T00:52:42.594Z,0.00
2019-02-21T00:53:42.579Z,0.00
2019-02-21T00:54:42.565Z,0.00
2019-02-21T00:55:42.553Z,0.00
2019-02-21T00:56:42.556Z,0.00
2019-02-21T00:57:42.551Z,0.00
2019-02-21T00:58:42.531Z,0.00
2019-02-21T00:59:42.585Z,0.00
2019-02-21T01:00:46.645Z,0.00
2019-02-21T01:01:42.513Z,0.00
2019-02-21T01:02:42.488Z,0.00
2019-02-21T01:03:42.470Z,0.00
2019-02-21T01:04:42.466Z,0.00
2019-02-21T01:05:42.454Z,0.00
2019-02-21T01:06:42.483Z,0.00
2019-02-21T01:07:42.438Z,0.00
2019-02-21T01:08:42.421Z,0.00
2019-02-21T01:09:42.404Z,0.00
2019-02-21T01:10:42.398Z,0.00
2019-02-21T01:11:42.395Z,0.00
2019-02-21T01:12:42.417Z,0.00
2019-02-21T01:13:42.415Z,0.00
2019-02-21T01:14:42.352Z,0.00
2019-02-21T01:15:42.338Z,0.00
2019-02-21T01:16:42.329Z,0.00
2019-02-21T01:17:42.330Z,0.00
2019-02-21T01:18:42.316Z,0.00
2019-02-21T01:19:42.317Z,0.00
2019-02-21T01:20:42.305Z,0.00
2019-02-21T01:21:42.275Z,0.00
2019-02-21T01:22:42.279Z,0.00
2019-02-21T01:23:42.261Z,0.00
2019-02-21T01:24:42.249Z,0.00
2019-02-21T01:25:42.240Z,0.00
2019-02-21T01:26:42.270Z,0.00
2019-02-21T01:27:42.223Z,0.00
2019-02-21T01:28:42.198Z,0.00
2019-02-21T01:29:42.195Z,0.00
2019-02-21T01:30:42.183Z,0.00
2019-02-21T01:31:42.179Z,0.00
2019-02-21T01:32:42.178Z,0.00
2019-02-21T01:33:42.161Z,0.00
2019-02-21T01:34:42.135Z,0.00
2019-02-21T01:35:42.122Z,0.00
2019-02-21T01:36:42.122Z,0.00
2019-02-21T01:37:42.109Z,0.00
2019-02-21T01:38:42.132Z,0.00
2019-02-21T01:39:42.113Z,0.00
2019-02-21T01:40:42.065Z,0.00
2019-02-21T01:41:42.058Z,0.00
2019-02-21T01:42:42.062Z,0.00
2019-02-21T01:43:42.049Z,0.00
2019-02-21T01:44:42.072Z,0.00
2019-02-21T01:45:42.032Z,0.00
2019-02-21T01:46:42.021Z,0.00
2019-02-21T01:47:42.009Z,0.00
2019-02-21T01:48:41.988Z,0.00
2019-02-21T01:49:41.985Z,0.00
2019-02-21T01:50:41.978Z,0.00
2019-02-21T01:51:41.968Z,0.00
2019-02-21T01:52:41.948Z,0.00
2019-02-21T01:53:41.928Z,0.00
2019-02-21T01:54:41.924Z,0.00
2019-02-21T01:55:41.912Z,0.00
2019-02-21T01:56:41.912Z,0.00
2019-02-21T01:57:41.892Z,0.00
2019-02-21T01:58:41.899Z,0.00
2019-02-21T01:59:41.863Z,0.00
2019-02-21T02:00:41.857Z,0.00
2019-02-21T02:01:41.857Z,0.00
2019-02-21T02:02:41.848Z,0.00
2019-02-21T02:03:41.827Z,0.00
2019-02-21T02:04:41.863Z,0.00
2019-02-21T02:05:41.830Z,0.00
2019-02-21T02:06:41.789Z,0.00
2019-02-21T02:07:41.783Z,0.00
2019-02-21T02:08:41.769Z,0.00
2019-02-21T02:09:41.761Z,0.00
2019-02-21T02:10:41.781Z,0.00
2019-02-21T02:11:41.737Z,0.00
2019-02-21T02:12:41.732Z,0.00
2019-02-21T02:13:41.711Z,0.00
2019-02-21T02:14:41.707Z,0.00
2019-02-21T02:15:41.712Z,0.00
2019-02-21T02:16:41.712Z,0.00
2019-02-21T02:17:41.686Z,0.00
2019-02-21T02:18:41.657Z,0.00
2019-02-21T02:19:41.646Z,0.00
2019-02-21T02:20:41.648Z,0.00
2019-02-21T02:21:41.625Z,0.00
2019-02-21T02:22:41.631Z,0.00
2019-02-21T02:23:41.617Z,0.00
2019-02-21T02:24:41.602Z,0.00
2019-02-21T02:25:41.592Z,0.00
2019-02-21T02:26:41.578Z,0.00
2019-02-21T02:27:41.583Z,0.00
2019-02-21T02:28:41.569Z,0.00
2019-02-21T02:29:41.575Z,0.00
2019-02-21T02:30:41.556Z,0.00
2019-02-21T02:31:41.520Z,0.00
2019-02-21T02:32:41.525Z,0.00
2019-02-21T02:33:41.502Z,0.00
2019-02-21T02:34:41.494Z,0.00
2019-02-21T02:35:41.522Z,0.00
2019-02-21T02:36:41.487Z,0.00
2019-02-21T02:37:41.461Z,0.00
2019-02-21T02:38:41.447Z,0.00
2019-02-21T02:39:41.437Z,0.00
2019-02-21T02:40:41.444Z,0.00
2019-02-21T02:41:41.418Z,0.00
2019-02-21T02:42:41.429Z,0.00
2019-02-21T02:43:41.392Z,0.00
2019-02-21T02:44:41.392Z,0.00
2019-02-21T02:45:41.381Z,0.00
2019-02-21T02:46:41.381Z,0.00
2019-02-21T02:47:41.354Z,0.00
2019-02-21T02:48:41.346Z,0.00
2019-02-21T02:49:41.351Z,0.00
2019-02-21T02:50:41.314Z,0.00
2019-02-21T02:51:41.320Z,0.00
2019-02-21T02:52:41.299Z,0.00
2019-02-21T02:53:41.282Z,0.00
2019-02-21T02:54:41.284Z,0.00
2019-02-21T02:55:41.328Z,0.00
2019-02-21T02:56:41.268Z,0.00
2019-02-21T02:57:41.249Z,0.00
2019-02-21T02:58:41.270Z,0.00
2019-02-21T02:59:41.375Z,0.00
2019-02-21T03:00:41.219Z,0.00
2019-02-21T03:01:41.265Z,0.00
2019-02-21T03:02:41.198Z,0.00
2019-02-21T03:03:41.206Z,0.00
2019-02-21T03:04:41.174Z,0.00
2019-02-21T03:05:41.156Z,0.00
2019-02-21T03:06:41.166Z,0.00
2019-02-21T03:07:41.168Z,0.00
2019-02-21T03:08:41.137Z,0.00
2019-02-21T03:09:41.143Z,0.00
2019-02-21T03:10:41.139Z,0.00
2019-02-21T03:11:41.123Z,0.00
2019-02-21T03:12:41.127Z,0.00
2019-02-21T03:13:41.082Z,0.00
2019-02-21T03:14:41.090Z,0.00
2019-02-21T03:15:41.054Z,0.00
2019-02-21T03:16:41.042Z,0.00
2019-02-21T03:17:41.081Z,0.00
2019-02-21T03:18:41.065Z,0.00
2019-02-21T03:19:41.014Z,0.00
2019-02-21T03:20:41.004Z,0.00
2019-02-21T03:21:41.009Z,0.00
2019-02-21T03:22:40.979Z,0.00
2019-02-21T03:23:41.013Z,0.00
2019-02-21T03:24:40.960Z,0.00
2019-02-21T03:25:40.945Z,0.00
2019-02-21T03:26:40.949Z,0.00
2019-02-21T03:27:40.955Z,0.00
2019-02-21T03:28:40.955Z,0.00
2019-02-21T03:29:40.907Z,0.00
2019-02-21T03:30:40.913Z,0.00
2019-02-21T03:31:53.389Z,0.00
2019-02-21T03:32:41.930Z,0.00
2019-02-21T03:33:40.889Z,0.00
2019-02-21T03:34:40.867Z,0.00
2019-02-21T03:35:40.886Z,0.00
2019-02-21T03:36:40.830Z,0.00
2019-02-21T03:37:40.817Z,0.00
2019-02-21T03:38:40.813Z,0.00
2019-02-21T03:39:40.820Z,0.00
2019-02-21T03:40:40.788Z,0.00
2019-02-21T03:41:40.793Z,0.00
2019-02-21T03:42:40.761Z,0.00
2019-02-21T03:43:40.760Z,0.00
2019-02-21T03:44:40.744Z,0.00
2019-02-21T03:45:40.752Z,0.00
2019-02-21T03:46:40.725Z,0.00
2019-02-21T03:47:40.737Z,0.00
2019-02-21T03:48:40.711Z,0.00
2019-02-21T03:49:40.703Z,0.00
2019-02-21T03:50:40.761Z,0.00
2019-02-21T03:51:40.674Z,0.00
2019-02-21T03:52:40.659Z,0.00
2019-02-21T03:53:40.671Z,0.00
2019-02-21T03:54:40.633Z,0.00
2019-02-21T03:55:40.646Z,0.00
2019-02-21T03:56:40.627Z,0.00
2019-02-21T03:57:40.613Z,0.00
2019-02-21T03:58:40.600Z,0.00
2019-02-21T03:59:40.601Z,0.00
2019-02-21T04:00:40.572Z,0.00
2019-02-21T04:01:40.573Z,0.00
2019-02-21T04:02:40.572Z,0.00
2019-02-21T04:03:40.559Z,0.00
2019-02-21T04:04:40.532Z,0.00
2019-02-21T04:05:40.540Z,0.00
2019-02-21T04:06:40.523Z,0.00
2019-02-21T04:07:40.494Z,0.00
2019-02-21T04:08:40.487Z,0.00
2019-02-21T04:09:40.486Z,0.00
2019-02-21T04:10:40.477Z,0.00
2019-02-21T04:11:40.457Z,0.00
2019-02-21T04:12:40.464Z,0.00
2019-02-21T04:13:40.491Z,0.00
2019-02-21T04:14:40.432Z,0.00
2019-02-21T04:15:40.440Z,0.00
2019-02-21T04:16:40.402Z,0.00
2019-02-21T04:17:40.397Z,0.00
2019-02-21T04:18:40.377Z,0.00
2019-02-21T04:19:40.427Z,0.00
2019-02-21T04:20:40.353Z,0.00
2019-02-21T04:21:40.345Z,0.00
2019-02-21T04:22:40.337Z,0.00
2019-02-21T04:23:40.328Z,0.00
2019-02-21T04:24:40.327Z,0.00
2019-02-21T04:25:40.345Z,0.00
2019-02-21T04:26:40.289Z,0.00
2019-02-21T04:27:40.279Z,0.00
2019-02-21T04:28:40.276Z,0.00
2019-02-21T04:29:40.250Z,0.00
2019-02-21T04:30:40.275Z,0.00
2019-02-21T04:31:40.241Z,0.00
2019-02-21T04:32:40.298Z,0.00
2019-02-21T04:33:40.242Z,0.00
2019-02-21T04:34:40.234Z,0.00
2019-02-21T04:35:40.261Z,0.00
2019-02-21T04:36:40.180Z,0.00
2019-02-21T04:37:40.171Z,0.00
2019-02-21T04:38:40.158Z,0.00
2019-02-21T04:39:40.153Z,0.00
2019-02-21T04:40:40.190Z,0.00
2019-02-21T04:41:40.155Z,0.00
2019-02-21T04:42:40.132Z,0.00
2019-02-21T04:43:40.106Z,0.00
2019-02-21T04:44:40.095Z,0.00
2019-02-21T04:45:40.086Z,0.00
2019-02-21T04:46:40.064Z,0.00
2019-02-21T04:47:40.083Z,0.00
2019-02-21T04:48:40.072Z,0.00
2019-02-21T04:49:40.043Z,0.00
2019-02-21T04:50:40.022Z,0.00
2019-02-21T04:51:40.031Z,0.00
2019-02-21T04:52:40.001Z,0.00
2019-02-21T04:53:40.028Z,0.00
2019-02-21T04:54:39.986Z,0.00
2019-02-21T04:55:39.973Z,0.00
2019-02-21T04:56:39.961Z,0.00
2019-02-21T04:57:39.971Z,0.00
2019-02-21T04:58:39.933Z,0.00
2019-02-21T04:59:39.943Z,0.00
2019-02-21T05:00:39.915Z,0.00
2019-02-21T05:01:40.444Z,0.00
2019-02-21T05:02:39.896Z,0.00
2019-02-21T05:03:39.898Z,0.00
2019-02-21T05:04:39.968Z,0.00
2019-02-21T05:05:39.859Z,0.00
2019-02-21T05:06:39.856Z,0.00
2019-02-21T05:07:39.869Z,0.00
2019-02-21T05:08:39.835Z,0.00
2019-02-21T05:09:39.823Z,0.00
2019-02-21T05:10:39.818Z,0.00
2019-02-21T05:11:39.822Z,0.00
2019-02-21T05:12:39.802Z,0.00
2019-02-21T05:13:39.769Z,0.00
2019-02-21T05:14:39.774Z,0.00
2019-02-21T05:15:39.756Z,0.00
2019-02-21T05:16:39.740Z,0.00
2019-02-21T05:17:39.798Z,0.00
2019-02-21T05:18:39.756Z,0.00
2019-02-21T05:19:39.768Z,0.00
2019-02-21T05:20:39.702Z,0.00
2019-02-21T05:21:39.687Z,0.00
2019-02-21T05:22:39.669Z,0.00
2019-02-21T05:23:39.661Z,0.00
2019-02-21T05:24:39.676Z,0.00
2019-02-21T05:25:39.663Z,0.00
2019-02-21T05:26:39.635Z,0.00
2019-02-21T05:27:39.638Z,0.00
2019-02-21T05:28:41.270Z,0.00
2019-02-21T05:29:39.607Z,0.00
2019-02-21T05:30:39.595Z,0.00
2019-02-21T05:31:39.593Z,0.00
2019-02-21T05:32:41.183Z,0.00
2019-02-21T05:33:39.565Z,0.00
2019-02-21T05:34:39.555Z,0.00
2019-02-21T05:35:39.538Z,0.00
2019-02-21T05:36:39.540Z,0.00
2019-02-21T05:37:39.526Z,0.00
2019-02-21T05:38:39.505Z,0.00
2019-02-21T05:39:39.495Z,0.00
2019-02-21T05:40:41.971Z,0.00
2019-02-21T05:41:39.474Z,0.00
2019-02-21T05:42:39.475Z,0.00
2019-02-21T05:43:39.453Z,0.00
2019-02-21T05:44:39.435Z,0.00
2019-02-21T05:45:39.449Z,0.00
2019-02-21T05:46:39.422Z,0.00
2019-02-21T05:47:39.420Z,0.00
2019-02-21T05:48:40.310Z,0.00
2019-02-21T05:49:39.431Z,0.00
2019-02-21T05:50:39.371Z,0.00
2019-02-21T05:51:39.359Z,0.00
2019-02-21T05:52:39.350Z,0.00
2019-02-21T05:53:39.365Z,0.00
2019-02-21T05:54:39.335Z,0.00
2019-02-21T05:55:39.366Z,0.00
2019-02-21T05:56:39.306Z,0.00
2019-02-21T05:57:39.291Z,0.00
2019-02-21T05:58:39.305Z,0.00
2019-02-21T05:59:39.277Z,0.00
2019-02-21T06:00:39.274Z,0.00
2019-02-21T06:01:39.264Z,4.00
2019-02-21T06:02:39.248Z,4.00
2019-02-21T06:03:39.243Z,4.00
2019-02-21T06:04:39.251Z,4.00
2019-02-21T06:05:39.220Z,0.00
2019-02-21T06:06:39.211Z,0.00
2019-02-21T06:07:39.212Z,4.00
2019-02-21T06:08:39.209Z,4.00
2019-02-21T06:09:39.180Z,4.00
2019-02-21T06:10:39.165Z,4.00
2019-02-21T06:11:39.178Z,8.00
2019-02-21T06:12:39.137Z,8.00
2019-02-21T06:13:39.139Z,8.00
2019-02-21T06:14:39.119Z,8.00
2019-02-21T06:15:39.119Z,12.00
2019-02-21T06:16:39.159Z,12.00
2019-02-21T06:17:39.112Z,16.00
2019-02-21T06:18:39.116Z,16.00
2019-02-21T06:19:39.059Z,20.00
2019-02-21T06:20:39.050Z,24.00
2019-02-21T06:21:39.044Z,32.00
2019-02-21T06:22:39.042Z,32.00
2019-02-21T06:23:39.492Z,36.00
2019-02-21T06:24:39.004Z,44.00
2019-02-21T06:25:50.585Z,48.00
2019-02-21T06:26:40.011Z,56.00
2019-02-21T06:27:38.988Z,64.00
2019-02-21T06:28:38.969Z,68.00
2019-02-21T06:29:38.962Z,68.00
2019-02-21T06:30:38.949Z,80.00
2019-02-21T06:31:38.935Z,92.00
2019-02-21T06:32:40.764Z,108.00
2019-02-21T06:33:38.912Z,120.00
2019-02-21T06:34:38.903Z,128.00
2019-02-21T06:35:38.904Z,132.00
2019-02-21T06:36:38.915Z,136.00
2019-02-21T06:37:38.889Z,136.00
2019-02-21T06:38:38.876Z,140.00
2019-02-21T06:39:38.845Z,148.00
2019-02-21T06:40:38.902Z,152.00
2019-02-21T06:41:39.006Z,156.00
2019-02-21T06:42:38.809Z,156.00
2019-02-21T06:43:38.801Z,160.00
2019-02-21T06:44:38.791Z,160.00
2019-02-21T06:45:38.822Z,168.00
2019-02-21T06:46:38.788Z,176.00
2019-02-21T06:47:38.784Z,180.00
2019-02-21T06:48:38.757Z,176.00
2019-02-21T06:49:38.739Z,176.00
2019-02-21T06:50:38.726Z,184.00
2019-02-21T06:51:38.713Z,180.00
2019-02-21T06:52:40.596Z,192.00
2019-02-21T06:53:38.697Z,196.00
2019-02-21T06:54:38.689Z,208.00
2019-02-21T06:55:38.673Z,220.00
2019-02-21T06:56:38.659Z,232.00
2019-02-21T06:57:38.657Z,248.00
2019-02-21T06:58:38.672Z,264.00
2019-02-21T06:59:43.411Z,276.00
2019-02-21T07:00:39.621Z,284.00
2019-02-21T07:01:38.615Z,296.00
2019-02-21T07:02:38.605Z,312.00
2019-02-21T07:03:38.590Z,328.00
2019-02-21T07:04:38.589Z,336.00
2019-02-21T07:05:38.644Z,352.00
2019-02-21T07:06:39.312Z,364.00
2019-02-21T07:07:38.548Z,380.00
2019-02-21T07:08:40.123Z,392.00
2019-02-21T07:09:38.593Z,412.00
2019-02-21T07:10:38.516Z,432.00
2019-02-21T07:11:38.510Z,448.00
2019-02-21T07:12:38.520Z,456.00
2019-02-21T07:13:38.487Z,440.00
2019-02-21T07:14:38.480Z,448.00
2019-02-21T07:15:38.455Z,468.00
2019-02-21T07:16:38.450Z,476.00
2019-02-21T07:17:48.487Z,488.00
2019-02-21T07:18:40.820Z,540.00
2019-02-21T07:19:38.422Z,552.00
2019-02-21T07:20:39.792Z,532.00
2019-02-21T07:21:38.393Z,500.00
2019-02-21T07:22:38.453Z,472.00
2019-02-21T07:23:43.528Z,456.00
2019-02-21T07:24:39.361Z,440.00
2019-02-21T07:25:38.363Z,424.00
2019-02-21T07:26:38.406Z,412.00
2019-02-21T07:27:38.336Z,396.00
2019-02-21T07:28:38.314Z,392.00
2019-02-21T07:29:38.918Z,380.00
2019-02-21T07:30:38.297Z,380.00
2019-02-21T07:31:38.288Z,376.00
2019-02-21T07:32:38.307Z,364.00
2019-02-21T07:33:38.270Z,372.00
2019-02-21T07:34:38.252Z,372.00
2019-02-21T07:35:38.253Z,376.00
2019-02-21T07:36:38.233Z,400.00
2019-02-21T07:37:38.213Z,428.00
2019-02-21T07:38:38.235Z,468.00
2019-02-21T07:39:38.248Z,524.00
2019-02-21T07:40:38.188Z,612.00
2019-02-21T07:41:38.184Z,704.00
2019-02-21T07:42:38.170Z,764.00
2019-02-21T07:43:38.151Z,772.00
2019-02-21T07:44:38.156Z,768.00
2019-02-21T07:45:38.178Z,800.00
2019-02-21T07:46:38.117Z,832.00
2019-02-21T07:47:38.122Z,860.00
2019-02-21T07:48:38.097Z,868.00
2019-02-21T07:49:38.085Z,876.00
2019-02-21T07:50:38.083Z,824.00
2019-02-21T07:51:38.120Z,756.00
2019-02-21T07:52:38.076Z,700.00
2019-02-21T07:53:38.052Z,676.00
2019-02-21T07:54:38.034Z,680.00
2019-02-21T07:55:38.027Z,688.00
2019-02-21T07:56:41.864Z,672.00
2019-02-21T07:57:38.000Z,636.00
2019-02-21T07:58:39.618Z,608.00
2019-02-21T07:59:37.985Z,584.00
2019-02-21T08:00:37.978Z,556.00
2019-02-21T08:01:37.953Z,528.00
2019-02-21T08:02:37.958Z,508.00
2019-02-21T08:03:44.986Z,512.00
2019-02-21T08:04:38.962Z,540.00
2019-02-21T08:05:37.920Z,588.00
2019-02-21T08:06:37.914Z,652.00
2019-02-21T08:07:37.898Z,708.00
2019-02-21T08:08:37.881Z,724.00
2019-02-21T08:09:37.884Z,712.00
2019-02-21T08:10:37.894Z,736.00
2019-02-21T08:11:37.864Z,816.00
2019-02-21T08:12:40.442Z,948.00
2019-02-21T08:13:37.832Z,1044.00
2019-02-21T08:14:37.830Z,1120.00
2019-02-21T08:15:37.807Z,1188.00
2019-02-21T08:16:37.844Z,1216.00
2019-02-21T08:17:37.801Z,1208.00
2019-02-21T08:18:37.771Z,1252.00
2019-02-21T08:19:37.779Z,1452.00
2019-02-21T08:20:40.870Z,1588.00
2019-02-21T08:21:37.857Z,1756.00
2019-02-21T08:22:37.780Z,1944.00
2019-02-21T08:23:37.721Z,2088.00
2019-02-21T08:24:37.712Z,2168.00
2019-02-21T08:25:37.703Z,2268.00
2019-02-21T08:26:37.698Z,2272.00
2019-02-21T08:27:37.675Z,2204.00
2019-02-21T08:28:37.679Z,2020.00
2019-02-21T08:29:37.656Z,1808.00
2019-02-21T08:30:37.649Z,1612.00
2019-02-21T08:31:37.633Z,1424.00
2019-02-21T08:32:37.631Z,1300.00
2019-02-21T08:33:37.607Z,1288.00
2019-02-21T08:34:37.644Z,1360.00
2019-02-21T08:35:37.624Z,1496.00
2019-02-21T08:36:37.623Z,1656.00
2019-02-21T08:37:37.647Z,1792.00
2019-02-21T08:38:37.555Z,2008.00
2019-02-21T08:39:37.548Z,2332.00
2019-02-21T08:40:37.545Z,2684.00
2019-02-21T08:41:37.521Z,2856.00
2019-02-21T08:42:37.517Z,2628.00
2019-02-21T08:43:37.531Z,2148.00
2019-02-21T08:44:37.492Z,1736.00
2019-02-21T08:45:37.500Z,1508.00
2019-02-21T08:46:37.470Z,1348.00
2019-02-21T08:47:37.475Z,1168.00
2019-02-21T08:48:40.286Z,1040.00
2019-02-21T08:49:37.467Z,912.00
2019-02-21T08:50:37.425Z,848.00
2019-02-21T08:51:37.436Z,868.00
2019-02-21T08:52:37.404Z,884.00
2019-02-21T08:53:37.413Z,952.00
2019-02-21T08:54:37.388Z,984.00
2019-02-21T08:55:37.391Z,920.00
2019-02-21T08:56:37.383Z,804.00
2019-02-21T08:57:37.357Z,752.00
2019-02-21T08:58:37.334Z,724.00
2019-02-21T08:59:37.349Z,676.00
2019-02-21T09:00:37.317Z,700.00
2019-02-21T09:01:37.303Z,792.00
2019-02-21T09:02:37.314Z,968.00
2019-02-21T09:03:37.325Z,1168.00
2019-02-21T09:04:37.299Z,1300.00
2019-02-21T09:05:37.261Z,1376.00
2019-02-21T09:06:37.259Z,1476.00
2019-02-21T09:07:37.245Z,1660.00
2019-02-21T09:08:37.378Z,1756.00
2019-02-21T09:09:37.269Z,1728.00
2019-02-21T09:10:37.250Z,1564.00
2019-02-21T09:11:37.197Z,1688.00
2019-02-21T09:12:37.185Z,1836.00
2019-02-21T09:13:37.172Z,2052.00
2019-02-21T09:14:37.190Z,2312.00
2019-02-21T09:15:37.163Z,2520.00
2019-02-21T09:16:37.204Z,2792.00
2019-02-21T09:17:37.142Z,3092.00
2019-02-21T09:18:37.119Z,3324.00
2019-02-21T09:19:37.111Z,3488.00
2019-02-21T09:20:37.114Z,3684.00
2019-02-21T09:21:37.113Z,3928.00
2019-02-21T09:22:37.113Z,4448.00
2019-02-21T09:23:37.067Z,4564.00
2019-02-21T09:24:40.109Z,4968.00
2019-02-21T09:25:38.078Z,5108.00
2019-02-21T09:26:37.041Z,5580.00
2019-02-21T09:27:37.045Z,6176.00
2019-02-21T09:28:37.033Z,6332.00
2019-02-21T09:29:37.007Z,6248.00
2019-02-21T09:30:36.987Z,5944.00
2019-02-21T09:31:36.997Z,5648.00
2019-02-21T09:32:36.970Z,5332.00
2019-02-21T09:33:37.342Z,5100.00
2019-02-21T09:34:36.955Z,5036.00
2019-02-21T09:35:36.946Z,5060.00
2019-02-21T09:36:36.937Z,5136.00
2019-02-21T09:37:36.934Z,5056.00
2019-02-21T09:38:36.913Z,4812.00
2019-02-21T09:39:36.895Z,4732.00
2019-02-21T09:40:36.897Z,4692.00
2019-02-21T09:41:36.878Z,4656.00
2019-02-21T09:42:36.882Z,5072.00
2019-02-21T09:43:36.880Z,5556.00
2019-02-21T09:44:36.842Z,5932.00
2019-02-21T09:45:36.835Z,6516.00
2019-02-21T09:46:36.832Z,6932.00
2019-02-21T09:47:36.808Z,6828.00
2019-02-21T09:48:36.802Z,6424.00
2019-02-21T09:49:36.875Z,6428.00
2019-02-21T09:50:36.771Z,6692.00
2019-02-21T09:51:36.777Z,6128.00
2019-02-21T09:52:36.753Z,6840.00
2019-02-21T09:53:36.744Z,6052.00
2019-02-21T09:54:36.727Z,5940.00
2019-02-21T09:55:36.744Z,6024.00
2019-02-21T09:56:36.714Z,6468.00
2019-02-21T09:57:36.755Z,6564.00
2019-02-21T09:58:36.690Z,6724.00
2019-02-21T09:59:36.760Z,6980.00
2019-02-21T10:00:36.692Z,6864.00
2019-02-21T10:01:36.658Z,6584.00
2019-02-21T10:02:36.640Z,6148.00
2019-02-21T10:03:36.665Z,5856.00
2019-02-21T10:04:36.622Z,5688.00
2019-02-21T10:05:36.605Z,5592.00
2019-02-21T10:06:36.601Z,5648.00
2019-02-21T10:07:37.225Z,5248.00
2019-02-21T10:08:36.633Z,5044.00
2019-02-21T10:09:36.562Z,4804.00
2019-02-21T10:10:36.599Z,4656.00
2019-02-21T10:11:36.548Z,4736.00
2019-02-21T10:12:36.537Z,4752.00
2019-02-21T10:13:36.536Z,4280.00
2019-02-21T10:14:36.538Z,4032.00
2019-02-21T10:15:36.498Z,3836.00
2019-02-21T10:16:36.488Z,3792.00
2019-02-21T10:17:36.487Z,3832.00
2019-02-21T10:18:36.485Z,4060.00
2019-02-21T10:19:36.458Z,4340.00
2019-02-21T10:20:36.463Z,4532.00
2019-02-21T10:21:37.091Z,4420.00
2019-02-21T10:22:36.420Z,4200.00
2019-02-21T10:23:36.434Z,3756.00
2019-02-21T10:24:36.429Z,3468.00
2019-02-21T10:25:36.395Z,3388.00
2019-02-21T10:26:36.376Z,3332.00
2019-02-21T10:27:36.383Z,3428.00
2019-02-21T10:28:36.358Z,3836.00
2019-02-21T10:29:36.359Z,4008.00
2019-02-21T10:30:36.538Z,3608.00
2019-02-21T10:31:36.328Z,3188.00
2019-02-21T10:32:36.348Z,2840.00
2019-02-21T10:33:46.274Z,2508.00
2019-02-21T10:34:42.926Z,2320.00
2019-02-21T10:35:37.281Z,2260.00
2019-02-21T10:36:36.267Z,2296.00
2019-02-21T10:37:36.258Z,2560.00
2019-02-21T10:38:36.262Z,3404.00
2019-02-21T10:39:36.280Z,5924.00
2019-02-21T10:40:36.266Z,7364.00
2019-02-21T10:41:36.238Z,8348.00
2019-02-21T10:42:36.221Z,7228.00
2019-02-21T10:43:36.215Z,7748.00
2019-02-21T10:44:36.213Z,8420.00
2019-02-21T10:45:47.072Z,8496.00
2019-02-21T10:46:37.175Z,8304.00
2019-02-21T10:47:36.147Z,7320.00
2019-02-21T10:48:36.175Z,6496.00
2019-02-21T10:49:36.145Z,5572.00
2019-02-21T10:50:36.121Z,4916.00
2019-02-21T10:51:36.119Z,4400.00
2019-02-21T10:52:36.112Z,4064.00
2019-02-21T10:53:36.101Z,3784.00
2019-02-21T10:54:36.086Z,3540.00
2019-02-21T10:55:36.108Z,3352.00
2019-02-21T10:56:36.058Z,3236.00
2019-02-21T10:57:36.044Z,3180.00
2019-02-21T10:58:36.034Z,3016.00
2019-02-21T10:59:46.265Z,2832.00
2019-02-21T11:00:37.025Z,2692.00
2019-02-21T11:01:36.028Z,2628.00
2019-02-21T11:02:35.998Z,2600.00
2019-02-21T11:03:35.981Z,2564.00
2019-02-21T11:04:35.974Z,2580.00
2019-02-21T11:05:35.965Z,2660.00
2019-02-21T11:06:35.953Z,2672.00
2019-02-21T11:07:35.959Z,2708.00
2019-02-21T11:08:35.920Z,2980.00
2019-02-21T11:09:35.935Z,3436.00
2019-02-21T11:10:35.924Z,3904.00
2019-02-21T11:11:35.895Z,5360.00
2019-02-21T11:12:35.894Z,5096.00
2019-02-21T11:13:35.868Z,5932.00
2019-02-21T11:14:47.038Z,5388.00
2019-02-21T11:15:36.850Z,5820.00
2019-02-21T11:16:35.841Z,5620.00
2019-02-21T11:17:35.824Z,5924.00
2019-02-21T11:18:35.822Z,5156.00
2019-02-21T11:19:35.832Z,5860.00
2019-02-21T11:20:35.790Z,6852.00
2019-02-21T11:21:35.779Z,7024.00
2019-02-21T11:22:35.777Z,7128.00
2019-02-21T11:23:35.784Z,7208.00
2019-02-21T11:24:35.753Z,7252.00
2019-02-21T11:25:35.738Z,7268.00
2019-02-21T11:26:35.757Z,7200.00
2019-02-21T11:27:35.719Z,6872.00
2019-02-21T11:28:35.708Z,6460.00
2019-02-21T11:29:35.704Z,5816.00
2019-02-21T11:30:35.681Z,5508.00
2019-02-21T11:31:35.668Z,5460.00
2019-02-21T11:32:35.674Z,5956.00
2019-02-21T11:33:35.686Z,5932.00
2019-02-21T11:34:38.067Z,5608.00
2019-02-21T11:35:35.630Z,5484.00
2019-02-21T11:36:35.630Z,5072.00
2019-02-21T11:37:43.253Z,5340.00
2019-02-21T11:38:36.596Z,4136.00
2019-02-21T11:39:35.611Z,3584.00
2019-02-21T11:40:35.629Z,3300.00
2019-02-21T11:41:35.579Z,3132.00
2019-02-21T11:42:35.555Z,3064.00
2019-02-21T11:43:35.548Z,3136.00
2019-02-21T11:44:35.528Z,3184.00
2019-02-21T11:45:35.516Z,3308.00
2019-02-21T11:46:35.518Z,3412.00
2019-02-21T11:47:35.515Z,3480.00
2019-02-21T11:48:35.491Z,3548.00
2019-02-21T11:49:35.523Z,3568.00
2019-02-21T11:50:35.467Z,3584.00
2019-02-21T11:51:35.470Z,3604.00
2019-02-21T11:52:35.452Z,3496.00
2019-02-21T11:53:37.993Z,3516.00
2019-02-21T11:54:35.420Z,3584.00
2019-02-21T11:55:35.448Z,3428.00
2019-02-21T11:56:35.407Z,3264.00
2019-02-21T11:57:35.388Z,3272.00
2019-02-21T11:58:35.399Z,3352.00
2019-02-21T11:59:35.395Z,3380.00
2019-02-21T12:00:35.358Z,3436.00
2019-02-21T12:01:35.412Z,3700.00
2019-02-21T12:02:38.779Z,4436.00
2019-02-21T12:03:35.315Z,4752.00
2019-02-21T12:04:35.327Z,5048.00
2019-02-21T12:05:35.298Z,5060.00
2019-02-21T12:06:35.294Z,4804.00
2019-02-21T12:07:35.321Z,4796.00
2019-02-21T12:08:35.269Z,4788.00
2019-02-21T12:09:35.255Z,4716.00
2019-02-21T12:10:35.248Z,4772.00
2019-02-21T12:11:35.228Z,4684.00
2019-02-21T12:12:35.216Z,4580.00
2019-02-21T12:13:35.312Z,4552.00
2019-02-21T12:14:35.200Z,4392.00
2019-02-21T12:15:35.191Z,4336.00
2019-02-21T12:16:35.173Z,4316.00
2019-02-21T12:17:35.166Z,4316.00
2019-02-21T12:18:35.175Z,4204.00
2019-02-21T12:19:35.171Z,4176.00
2019-02-21T12:20:35.136Z,4168.00
2019-02-21T12:21:35.125Z,4232.00
2019-02-21T12:22:35.110Z,4440.00
2019-02-21T12:23:35.099Z,4496.00
2019-02-21T12:24:35.097Z,4512.00
2019-02-21T12:25:35.102Z,4744.00
2019-02-21T12:26:35.067Z,4768.00
2019-02-21T12:27:35.061Z,4808.00
2019-02-21T12:28:35.048Z,4796.00
2019-02-21T12:29:35.051Z,4776.00
2019-02-21T12:30:35.020Z,4528.00
2019-02-21T12:31:35.039Z,4584.00
2019-02-21T12:32:35.003Z,4452.00
2019-02-21T12:33:34.990Z,4664.00
2019-02-21T12:34:34.996Z,4784.00
2019-02-21T12:35:34.966Z,4652.00
2019-02-21T12:36:34.958Z,4356.00
2019-02-21T12:37:34.968Z,4260.00
2019-02-21T12:38:34.937Z,4276.00
2019-02-21T12:39:34.932Z,4188.00
2019-02-21T12:40:34.931Z,4088.00
2019-02-21T12:41:34.904Z,4012.00
2019-02-21T12:42:34.889Z,4044.00
2019-02-21T12:43:34.899Z,3984.00
2019-02-21T12:44:34.884Z,3940.00